Aérodrome :
LOGIN :

S'inscrire | Disclaimer

   EN    FR    IT 

 










Légende :    VFR   VFR Marginal   IFR   IFR Intensif   IFR Très Intensif
Visi : 
Plafond : 
>= 8 km
>= 3000ft
5 à 8 km
1000 à 3000 ft
1500m à 5 km
500 à 1000 ft
800 à 1500m
200 à 500 ft
< 800m
< 200 ft
Symboles :   Orages  Brouillard  Fortes neiges  Fortes précipitations  Vent > 20 kt
SIGMETs :   Divers  Orages  Givrage  Turbulence  Onde Orograph.  Cendres Volcan.







- Altitude de l'aérodrome : 194 ft


EBCV - Chièvres

DERNIER METAR :
  • 180233Z AUTO 24004KT 4000 -RASN SCT013/// BKN027/// 01/00 Q1018 GRN

METARs EXPIRÉS :
  • 180203Z AUTO 22006KT 9999 BKN024/// 00/00 Q1018 WHT
  • 180125Z AUTO 22005KT 9000 FEW015/// OVC057/// 00/00 Q1018 BLU
  • 180055Z AUTO 18003KT 9999 BKN016/// 00/00 Q1018 WHT
  • 180035Z AUTO VRB02KT 9000 -RA SCT017/// BKN025/// 00/00 Q1017 WHT
  • 172355Z AUTO 24003KT 9999 FEW028/// 00/00 Q1017 BLU

TAF TAF EBCV
Valide du 17 à 19h jusqu'au 18 à 07h UTC


171553Z 1719/1807 27012KT 9999 BKN027
TEMPO 1719/1800 4000 -SHRA -SHRASN BKN012 BKN020
BECMG 1800/1802 9999 NSW FEW035 BY EBWM
Pas de NOTAMs connus pour ce terrain.



MET'MAP, la Météo Aéronautique d'un coup d'oeil ! - Copyright ORBIFLY Décembre 2007 - Disclaimer

ORBIFLY MET'MAP TEAM :

Programmation & Développement : Alexandra Zaïnal
Conception & Développement : Baudouin d'Aumeries
Co-Programmation & Développement : Marc-Olivier Méhu
Soutien technique & logistique : Manuel Goepfert

Contact : metmap@orbifly.com




SOURCES & CREDITS :

   NOAA